createdAt,value
2019-05-05T00:03:36.050Z,3.23
2019-05-05T00:06:06.346Z,3.16
2019-05-05T00:08:35.211Z,3.16
2019-05-05T00:11:11.376Z,3.16
2019-05-05T00:13:58.120Z,3.08
2019-05-05T00:16:28.458Z,3.17
2019-05-05T00:18:57.534Z,3.04
2019-05-05T00:21:26.188Z,2.97
2019-05-05T00:23:55.407Z,2.85
2019-05-05T00:26:24.564Z,2.81
2019-05-05T00:28:55.302Z,2.88
2019-05-05T00:31:24.336Z,2.97
2019-05-05T00:33:54.396Z,2.95
2019-05-05T00:36:24.655Z,3.01
2019-05-05T00:38:55.282Z,2.92
2019-05-05T00:41:25.317Z,2.89
2019-05-05T00:43:56.775Z,2.91
2019-05-05T00:46:35.173Z,2.81
2019-05-05T00:49:05.432Z,2.85
2019-05-05T00:51:34.838Z,2.93
2019-05-05T00:54:04.426Z,2.78
2019-05-05T00:56:34.279Z,2.58
2019-05-05T00:59:10.716Z,2.52
2019-05-05T01:01:51.311Z,2.43
2019-05-05T01:04:21.643Z,2.45
2019-05-05T01:06:50.316Z,2.55
2019-05-05T01:09:25.261Z,2.48
2019-05-05T01:11:55.049Z,2.46
2019-05-05T01:14:24.976Z,2.45
2019-05-05T01:16:54.607Z,2.49
2019-05-05T01:19:24.333Z,2.62
2019-05-05T01:21:54.422Z,2.68
2019-05-05T01:24:24.864Z,2.49
2019-05-05T01:26:55.087Z,2.35
2019-05-05T01:29:25.288Z,2.21
2019-05-05T01:31:55.749Z,2.13
2019-05-05T01:34:26.091Z,2.10
2019-05-05T01:36:56.386Z,2.10
2019-05-05T01:39:29.794Z,2.08
2019-05-05T01:42:04.881Z,2.20
2019-05-05T01:44:35.201Z,2.28
2019-05-05T01:47:05.335Z,2.34
2019-05-05T01:49:34.576Z,2.39
2019-05-05T01:52:04.350Z,2.48
2019-05-05T01:54:35.178Z,2.38
2019-05-05T01:57:05.480Z,2.41
2019-05-05T01:59:35.376Z,2.45
2019-05-05T02:02:04.514Z,2.44
2019-05-05T02:04:34.309Z,2.27
2019-05-05T02:07:05.303Z,2.20
2019-05-05T02:09:35.364Z,2.07
2019-05-05T02:12:05.348Z,2.08
2019-05-05T02:14:35.215Z,2.04
2019-05-05T02:17:05.071Z,2.08
2019-05-05T02:19:35.019Z,2.21
2019-05-05T02:22:05.309Z,2.22
2019-05-05T02:24:35.301Z,2.03
2019-05-05T02:27:05.139Z,1.97
2019-05-05T02:29:38.407Z,1.98
2019-05-05T02:32:08.734Z,2.03
2019-05-05T02:34:39.029Z,2.09
2019-05-05T02:37:07.731Z,2.12
2019-05-05T02:39:39.257Z,2.14
2019-05-05T02:42:06.891Z,2.14
2019-05-05T02:44:37.146Z,2.14
2019-05-05T02:47:15.463Z,2.12
2019-05-05T02:49:45.375Z,1.94
2019-05-05T02:52:15.344Z,1.89
2019-05-05T02:54:44.961Z,1.98
2019-05-05T02:57:14.662Z,1.88
2019-05-05T02:59:45.362Z,1.79
2019-05-05T03:02:16.797Z,1.72
2019-05-05T03:04:45.960Z,1.86
2019-05-05T03:07:16.546Z,1.93
2019-05-05T03:09:46.677Z,1.97
2019-05-05T03:12:17.382Z,2.00
2019-05-05T03:14:47.044Z,1.98
2019-05-05T03:17:15.912Z,1.70
2019-05-05T03:19:45.011Z,1.59
2019-05-05T03:22:14.346Z,1.59
2019-05-05T03:24:44.657Z,1.51
2019-05-05T03:27:14.459Z,1.59
2019-05-05T03:29:44.197Z,1.48
2019-05-05T03:32:16.067Z,1.56
2019-05-05T03:34:44.510Z,1.67
2019-05-05T03:37:14.625Z,1.68
2019-05-05T03:39:45.107Z,1.71
2019-05-05T03:42:15.396Z,1.74
2019-05-05T03:44:54.663Z,1.74
2019-05-05T03:47:24.152Z,1.74
2019-05-05T03:49:53.567Z,1.74
2019-05-05T03:52:24.474Z,1.73
2019-05-05T03:54:54.165Z,1.71
2019-05-05T03:57:24.637Z,1.72
2019-05-05T03:59:54.731Z,1.70
2019-05-05T04:02:27.946Z,1.69
2019-05-05T04:05:04.459Z,1.68
2019-05-05T04:07:33.547Z,1.69
2019-05-05T04:10:03.723Z,1.71
2019-05-05T04:12:34.587Z,1.72
2019-05-05T04:15:04.725Z,1.72
2019-05-05T04:17:37.998Z,1.72
2019-05-05T04:20:21.478Z,1.73
2019-05-05T04:22:50.196Z,1.74
2019-05-05T04:25:19.020Z,1.76
2019-05-05T04:27:47.682Z,1.80
2019-05-05T04:30:17.500Z,1.69
2019-05-05T04:32:46.148Z,1.59
2019-05-05T04:35:14.988Z,1.51
2019-05-05T04:37:43.900Z,1.38
2019-05-05T04:40:14.715Z,1.33
2019-05-05T04:42:44.067Z,1.51
2019-05-05T04:45:14.825Z,1.59
2019-05-05T04:47:45.409Z,1.51
2019-05-05T04:50:18.319Z,1.53
2019-05-05T04:52:46.608Z,1.54
2019-05-05T04:55:15.435Z,1.54
2019-05-05T04:57:44.156Z,1.51
2019-05-05T05:00:13.722Z,1.56
2019-05-05T05:02:50.320Z,1.62
2019-05-05T05:05:24.440Z,1.68
2019-05-05T05:07:54.325Z,1.73
2019-05-05T05:10:24.096Z,1.78
2019-05-05T05:12:53.974Z,1.77
2019-05-05T05:15:23.964Z,1.80
2019-05-05T05:17:54.336Z,1.82
2019-05-05T05:20:24.691Z,1.86
2019-05-05T05:22:54.431Z,1.92
2019-05-05T05:25:24.025Z,1.91
2019-05-05T05:27:53.614Z,1.99
2019-05-05T05:30:24.261Z,2.16
2019-05-05T05:32:53.871Z,2.14
2019-05-05T05:35:24.375Z,2.06
2019-05-05T05:37:54.010Z,2.16
2019-05-05T05:40:31.695Z,2.18
2019-05-05T05:43:02.015Z,2.22
2019-05-05T05:45:35.066Z,2.28
2019-05-05T05:48:08.362Z,2.46
2019-05-05T05:50:50.782Z,2.58
2019-05-05T05:53:19.510Z,2.71
2019-05-05T05:55:48.174Z,2.82
2019-05-05T05:58:16.871Z,2.88
2019-05-05T06:00:45.545Z,3.08
2019-05-05T06:03:14.393Z,3.26
2019-05-05T06:05:43.561Z,3.42
2019-05-05T06:08:14.180Z,3.57
2019-05-05T06:10:44.262Z,3.71
2019-05-05T06:13:15.326Z,3.84
2019-05-05T06:15:44.327Z,3.99
2019-05-05T06:18:13.862Z,4.12
2019-05-05T06:20:44.751Z,4.24
2019-05-05T06:23:14.679Z,4.37
2019-05-05T06:25:44.581Z,4.46
2019-05-05T06:28:14.532Z,4.59
2019-05-05T06:30:44.291Z,4.67
2019-05-05T06:33:13.803Z,4.69
2019-05-05T06:35:44.321Z,4.84
2019-05-05T06:38:13.666Z,4.98
2019-05-05T06:40:44.507Z,5.13
2019-05-05T06:43:27.288Z,5.24
2019-05-05T06:45:57.597Z,5.41
2019-05-05T06:48:26.342Z,5.64
2019-05-05T06:50:54.975Z,5.73
2019-05-05T06:53:23.960Z,6.00
2019-05-05T06:55:54.292Z,6.24
2019-05-05T06:58:24.192Z,6.63
2019-05-05T07:00:54.276Z,7.07
2019-05-05T07:03:24.404Z,7.54
2019-05-05T07:05:53.995Z,8.43
2019-05-05T07:08:24.410Z,9.27
2019-05-05T07:10:54.853Z,10.50
2019-05-05T07:13:24.496Z,11.30
2019-05-05T07:15:54.276Z,12.05
2019-05-05T07:18:24.710Z,12.87
2019-05-05T07:20:54.459Z,13.96
2019-05-05T07:23:24.646Z,14.41
2019-05-05T07:25:54.948Z,15.50
2019-05-05T07:28:23.999Z,16.21
2019-05-05T07:30:54.784Z,17.15
2019-05-05T07:33:23.848Z,17.44
2019-05-05T07:36:02.943Z,17.71
2019-05-05T07:38:26.757Z,18.72
2019-05-05T07:40:55.485Z,19.11
2019-05-05T07:43:24.389Z,19.56
2019-05-05T07:45:54.046Z,19.85
2019-05-05T07:48:24.297Z,19.94
2019-05-05T07:51:02.013Z,20.39
2019-05-05T07:53:24.475Z,20.82
2019-05-05T07:55:54.194Z,21.63
2019-05-05T07:58:24.258Z,21.60
2019-05-05T08:00:54.095Z,22.15
2019-05-05T08:03:23.625Z,22.00
2019-05-05T08:05:54.374Z,22.18
2019-05-05T08:08:24.449Z,22.34
2019-05-05T08:10:54.185Z,22.07
2019-05-05T08:13:24.321Z,22.87
2019-05-05T08:15:59.777Z,23.09
2019-05-05T08:18:43.834Z,23.17
2019-05-05T08:21:13.635Z,23.49
2019-05-05T08:23:54.103Z,24.13
2019-05-05T08:26:44.205Z,24.70
2019-05-05T08:29:23.976Z,25.10
2019-05-05T08:31:54.354Z,25.08
2019-05-05T08:34:24.493Z,25.40
2019-05-05T08:36:53.883Z,25.42
2019-05-05T08:39:24.390Z,25.58
2019-05-05T08:41:53.809Z,25.67
2019-05-05T08:44:23.677Z,25.51
2019-05-05T08:46:53.786Z,26.14
2019-05-05T08:49:24.446Z,25.61
2019-05-05T08:51:54.897Z,26.32
2019-05-05T08:54:23.690Z,26.10
2019-05-05T08:56:52.389Z,26.99
2019-05-05T08:59:21.083Z,27.13
2019-05-05T09:01:49.752Z,27.09
2019-05-05T09:04:18.874Z,27.27
2019-05-05T09:06:47.651Z,27.68
2019-05-05T09:09:16.324Z,26.51
2019-05-05T09:11:44.993Z,26.58
2019-05-05T09:14:14.902Z,26.49
2019-05-05T09:16:44.759Z,26.63
2019-05-05T09:19:18.637Z,27.18
2019-05-05T09:21:47.723Z,28.25
2019-05-05T09:24:18.061Z,27.66
2019-05-05T09:26:55.787Z,25.73
2019-05-05T09:29:32.052Z,24.09
2019-05-05T09:32:00.791Z,23.06
2019-05-05T09:34:29.515Z,22.20
2019-05-05T09:36:59.457Z,21.19
2019-05-05T09:39:28.183Z,20.39
2019-05-05T09:41:57.327Z,19.52
2019-05-05T09:44:26.000Z,19.05
2019-05-05T09:46:54.667Z,18.58
2019-05-05T09:49:24.616Z,18.95
2019-05-05T09:51:54.466Z,20.59
2019-05-05T09:54:24.330Z,22.06
2019-05-05T09:56:53.782Z,23.38
2019-05-05T09:59:24.052Z,22.90
2019-05-05T10:01:54.986Z,22.36
2019-05-05T10:04:24.845Z,21.44
2019-05-05T10:06:53.630Z,21.40
2019-05-05T10:09:24.204Z,21.61
2019-05-05T10:11:54.149Z,21.34
2019-05-05T10:14:23.626Z,21.06
2019-05-05T10:16:54.162Z,20.71
2019-05-05T10:19:24.347Z,20.23
2019-05-05T10:21:53.285Z,20.14
2019-05-05T10:24:30.149Z,20.46
2019-05-05T10:26:54.362Z,20.34
2019-05-05T10:29:23.079Z,21.42
2019-05-05T10:31:53.856Z,22.42
2019-05-05T10:34:24.208Z,22.88
2019-05-05T10:36:53.574Z,23.40
2019-05-05T10:39:29.839Z,24.04
2019-05-05T10:41:58.595Z,24.09
2019-05-05T10:44:27.234Z,24.04
2019-05-05T10:46:55.976Z,23.12
2019-05-05T10:49:24.630Z,22.24
2019-05-05T10:51:54.454Z,21.10
2019-05-05T10:54:23.728Z,20.02
2019-05-05T10:56:52.551Z,19.35
2019-05-05T10:59:23.662Z,18.71
2019-05-05T11:01:53.794Z,18.04
2019-05-05T11:04:24.213Z,17.47
2019-05-05T11:06:54.656Z,16.90
2019-05-05T11:09:24.377Z,16.96
2019-05-05T11:11:53.374Z,17.81
2019-05-05T11:14:22.116Z,18.62
2019-05-05T11:16:50.829Z,18.59
2019-05-05T11:19:19.517Z,18.26
2019-05-05T11:21:48.251Z,18.20
2019-05-05T11:24:16.946Z,18.98
2019-05-05T11:26:45.607Z,19.16
2019-05-05T11:29:14.391Z,18.98
2019-05-05T11:31:43.054Z,19.16
2019-05-05T11:34:14.014Z,19.77
2019-05-05T11:36:44.544Z,20.83
2019-05-05T11:39:14.809Z,21.34
2019-05-05T11:41:44.126Z,21.53
2019-05-05T11:44:14.995Z,22.07
2019-05-05T11:46:44.256Z,22.12
2019-05-05T11:49:13.912Z,22.25
2019-05-05T11:51:43.717Z,21.87
2019-05-05T11:54:14.063Z,21.41
2019-05-05T11:56:44.695Z,21.96
2019-05-05T11:59:14.439Z,21.72
2019-05-05T12:01:44.007Z,21.46
2019-05-05T12:04:14.744Z,21.05
2019-05-05T12:06:44.273Z,20.55
2019-05-05T12:09:14.811Z,20.23
2019-05-05T12:11:43.912Z,19.80
2019-05-05T12:14:14.397Z,19.56
2019-05-05T12:16:43.920Z,19.18
2019-05-05T12:19:13.731Z,19.13
2019-05-05T12:21:44.194Z,18.93
2019-05-05T12:24:14.795Z,18.74
2019-05-05T12:27:00.243Z,18.57
2019-05-05T12:29:29.061Z,18.46
2019-05-05T12:31:57.763Z,18.30
2019-05-05T12:34:26.474Z,18.17
2019-05-05T12:36:55.152Z,17.82
2019-05-05T12:39:23.902Z,17.66
2019-05-05T12:41:54.277Z,17.51
2019-05-05T12:44:24.841Z,17.29
2019-05-05T12:46:55.148Z,17.06
2019-05-05T12:49:25.380Z,16.73
2019-05-05T12:51:54.291Z,16.73
2019-05-05T12:54:24.570Z,16.66
2019-05-05T12:56:53.987Z,16.44
2019-05-05T12:59:25.006Z,16.31
2019-05-05T13:01:54.785Z,16.23
2019-05-05T13:04:24.558Z,16.00
2019-05-05T13:06:54.019Z,16.00
2019-05-05T13:09:24.339Z,16.09
2019-05-05T13:11:54.137Z,15.93
2019-05-05T13:14:22.999Z,15.81
2019-05-05T13:16:55.351Z,15.87
2019-05-05T13:19:35.780Z,15.89
2019-05-05T13:22:15.145Z,15.92
2019-05-05T13:24:45.607Z,15.90
2019-05-05T13:27:19.358Z,15.87
2019-05-05T13:29:46.389Z,15.86
2019-05-05T13:32:15.095Z,16.16
2019-05-05T13:34:43.989Z,16.79
2019-05-05T13:37:14.116Z,17.43
2019-05-05T13:39:44.540Z,18.19
2019-05-05T13:42:13.934Z,18.19
2019-05-05T13:44:59.612Z,18.29
2019-05-05T13:47:28.293Z,17.91
2019-05-05T13:49:58.639Z,17.15
2019-05-05T13:52:27.526Z,17.15
2019-05-05T13:54:56.187Z,16.83
2019-05-05T13:57:24.844Z,16.85
2019-05-05T13:59:54.539Z,16.94
2019-05-05T14:02:24.427Z,16.97
2019-05-05T14:04:54.223Z,17.15
2019-05-05T14:07:23.945Z,17.14
2019-05-05T14:09:54.858Z,17.11
2019-05-05T14:12:24.072Z,17.10
2019-05-05T14:14:54.599Z,17.10
2019-05-05T14:17:23.328Z,17.08
2019-05-05T14:20:03.967Z,17.13
2019-05-05T14:22:24.271Z,17.00
2019-05-05T14:24:54.663Z,16.84
2019-05-05T14:27:23.771Z,16.67
2019-05-05T14:29:54.247Z,16.65
2019-05-05T14:35:25.074Z,16.27
2019-05-05T14:37:55.453Z,16.20
2019-05-05T14:40:24.185Z,15.87
2019-05-05T14:42:53.967Z,15.81
2019-05-05T14:45:23.493Z,15.76
2019-05-05T14:47:53.583Z,15.87
2019-05-05T14:50:24.180Z,16.07
2019-05-05T14:52:53.513Z,16.15
2019-05-05T14:55:22.592Z,16.42
2019-05-05T14:57:53.332Z,16.52
2019-05-05T15:00:24.267Z,16.49
2019-05-05T15:02:54.468Z,16.39
2019-05-05T15:05:41.256Z,16.50
2019-05-05T15:08:13.435Z,16.74
2019-05-05T15:10:54.597Z,16.50
2019-05-05T15:13:24.332Z,16.40
2019-05-05T15:15:53.962Z,16.30
2019-05-05T15:18:24.120Z,16.08
2019-05-05T15:20:54.650Z,15.94
2019-05-05T15:23:24.107Z,15.69
2019-05-05T15:25:54.039Z,15.34
2019-05-05T15:28:24.524Z,15.27
2019-05-05T15:30:54.811Z,15.22
2019-05-05T15:33:24.389Z,15.13
2019-05-05T15:35:53.992Z,15.05
2019-05-05T15:38:24.407Z,14.88
2019-05-05T15:40:54.692Z,14.78
2019-05-05T15:43:24.321Z,14.80
2019-05-05T15:45:53.995Z,14.96
2019-05-05T15:48:22.847Z,14.93
2019-05-05T15:50:51.505Z,14.79
2019-05-05T15:53:20.286Z,14.63
2019-05-05T15:55:49.056Z,14.48
2019-05-05T15:58:20.656Z,14.29
2019-05-05T16:00:48.610Z,14.15
2019-05-05T16:03:17.392Z,14.10
2019-05-05T16:05:46.138Z,14.05
2019-05-05T16:08:14.835Z,13.90
2019-05-05T16:10:43.989Z,13.74
2019-05-05T16:13:14.043Z,13.40
2019-05-05T16:15:44.373Z,13.18
2019-05-05T16:18:20.708Z,12.95
2019-05-05T16:21:07.153Z,12.86
2019-05-05T16:23:37.506Z,12.83
2019-05-05T16:26:07.841Z,12.77
2019-05-05T16:28:36.654Z,12.73
2019-05-05T16:31:06.009Z,12.71
2019-05-05T16:33:34.803Z,12.74
2019-05-05T16:36:06.088Z,12.73
2019-05-05T16:38:34.455Z,12.69
2019-05-05T16:41:03.110Z,12.67
2019-05-05T16:43:33.624Z,12.70
2019-05-05T16:46:04.133Z,12.67
2019-05-05T16:48:34.380Z,12.71
2019-05-05T16:51:04.627Z,12.67
2019-05-05T16:53:37.194Z,12.53
2019-05-05T16:56:09.315Z,12.44
2019-05-05T16:58:38.084Z,12.35
2019-05-05T17:01:08.429Z,12.25
2019-05-05T17:03:37.153Z,12.17
2019-05-05T17:06:05.853Z,12.08
2019-05-05T17:08:34.555Z,12.00
2019-05-05T17:11:03.398Z,11.97
2019-05-05T17:13:36.434Z,11.93
2019-05-05T17:16:16.230Z,11.96
2019-05-05T17:19:01.835Z,11.98
2019-05-05T17:24:34.969Z,11.95
2019-05-05T17:27:03.715Z,11.94
2019-05-05T17:29:34.372Z,11.94
2019-05-05T17:32:03.441Z,11.94
2019-05-05T17:34:33.938Z,11.91
2019-05-05T17:37:04.277Z,11.90
2019-05-05T17:39:34.771Z,11.86
2019-05-05T17:42:05.181Z,11.78
2019-05-05T17:44:35.523Z,11.68
2019-05-05T17:47:17.829Z,11.62
2019-05-05T17:50:04.329Z,11.52
2019-05-05T17:52:38.490Z,11.43
2019-05-05T17:55:20.753Z,11.34
2019-05-05T17:57:59.753Z,11.29
2019-05-05T18:00:20.266Z,10.94
2019-05-05T18:02:48.998Z,11.02
2019-05-05T18:05:18.594Z,10.91
2019-05-05T18:07:50.606Z,10.84
2019-05-05T18:10:24.042Z,10.78
2019-05-05T18:13:14.270Z,10.78
2019-05-05T18:15:54.418Z,10.76
2019-05-05T18:18:23.478Z,10.71
2019-05-05T18:20:54.075Z,10.62
2019-05-05T18:23:23.442Z,10.45
2019-05-05T18:25:52.370Z,10.31
2019-05-05T18:28:24.700Z,10.25
2019-05-05T18:30:53.937Z,10.19
2019-05-05T18:33:24.515Z,10.05
2019-05-05T18:35:54.246Z,9.98
2019-05-05T18:38:23.577Z,9.94
2019-05-05T18:40:53.764Z,9.89
2019-05-05T18:43:24.507Z,9.82
2019-05-05T18:46:01.761Z,9.85
2019-05-05T18:48:30.479Z,9.77
2019-05-05T18:50:59.247Z,9.75
2019-05-05T18:53:28.762Z,9.73
2019-05-05T18:55:57.530Z,9.74
2019-05-05T18:58:30.339Z,9.74
2019-05-05T19:01:08.076Z,9.72
2019-05-05T19:03:44.371Z,9.71
2019-05-05T19:06:17.538Z,9.68
2019-05-05T19:08:54.259Z,9.69
2019-05-05T19:11:18.683Z,9.68
2019-05-05T19:13:47.477Z,9.67
2019-05-05T19:16:16.268Z,9.66
2019-05-05T19:18:44.950Z,9.66
2019-05-05T19:21:18.436Z,9.67
2019-05-05T19:23:47.163Z,9.68
2019-05-05T19:26:15.934Z,9.69
2019-05-05T19:28:49.877Z,9.68
2019-05-05T19:31:15.237Z,9.62
2019-05-05T19:33:43.973Z,9.53
2019-05-05T19:36:12.763Z,9.46
2019-05-05T19:38:41.445Z,9.37
2019-05-05T19:41:10.289Z,9.36
2019-05-05T19:43:40.650Z,9.29
2019-05-05T19:46:10.987Z,9.28
2019-05-05T19:48:39.814Z,9.24
2019-05-05T19:51:14.138Z,9.14
2019-05-05T19:53:44.618Z,9.12
2019-05-05T19:56:13.623Z,9.03
2019-05-05T19:58:57.555Z,9.00
2019-05-05T20:01:12.849Z,8.87
2019-05-05T20:03:43.827Z,8.78
2019-05-05T20:06:13.706Z,8.74
2019-05-05T20:08:44.257Z,8.72
2019-05-05T20:11:14.317Z,8.72
2019-05-05T20:13:44.587Z,8.68
2019-05-05T20:16:34.131Z,8.60
2019-05-05T20:19:04.179Z,8.55
2019-05-05T20:21:34.649Z,8.52
2019-05-05T20:24:03.769Z,8.45
2019-05-05T20:26:34.639Z,8.39
2019-05-05T20:29:13.675Z,8.35
2019-05-05T20:31:34.594Z,8.38
2019-05-05T20:34:05.050Z,8.36
2019-05-05T20:36:35.389Z,8.33
2019-05-05T20:39:06.863Z,8.31
2019-05-05T20:41:37.167Z,8.29
2019-05-05T20:44:06.267Z,8.27
2019-05-05T20:46:34.933Z,8.31
2019-05-05T20:49:04.014Z,8.27
2019-05-05T20:51:33.931Z,8.30
2019-05-05T20:54:04.747Z,8.34
2019-05-05T20:56:33.775Z,8.38
2019-05-05T20:59:02.726Z,8.41
2019-05-05T21:01:31.469Z,8.21
2019-05-05T21:04:00.706Z,8.45
2019-05-05T21:06:29.396Z,8.43
2019-05-05T21:08:58.064Z,8.43
2019-05-05T21:11:26.792Z,8.45
2019-05-05T21:13:55.485Z,8.44
2019-05-05T21:16:24.208Z,8.37
2019-05-05T21:18:53.920Z,8.33
2019-05-05T21:21:24.857Z,8.27
2019-05-05T21:23:55.236Z,8.22
2019-05-05T21:26:28.489Z,8.18
2019-05-05T21:28:57.256Z,8.16
2019-05-05T21:31:25.921Z,8.10
2019-05-05T21:33:54.967Z,8.07
2019-05-05T21:36:24.379Z,8.02
2019-05-05T21:38:54.734Z,8.02
2019-05-05T21:41:24.437Z,7.91
2019-05-05T21:43:54.283Z,7.83
2019-05-05T21:46:24.033Z,7.72
2019-05-05T21:48:54.353Z,7.64
2019-05-05T21:51:24.951Z,7.61
2019-05-05T21:53:55.267Z,7.57
2019-05-05T21:56:41.963Z,7.53
2019-05-05T21:59:10.641Z,7.49
2019-05-05T22:01:40.967Z,7.41
2019-05-05T22:04:12.480Z,7.41
2019-05-05T22:06:40.315Z,7.33
2019-05-05T22:09:08.979Z,7.29
2019-05-05T22:11:37.757Z,7.22
2019-05-05T22:14:06.445Z,7.19
2019-05-05T22:16:35.571Z,7.13
2019-05-05T22:19:06.053Z,7.11
2019-05-05T22:21:36.376Z,7.05
2019-05-05T22:24:19.545Z,7.04
2019-05-05T22:26:48.392Z,7.02
2019-05-05T22:29:17.369Z,6.90
2019-05-05T22:31:46.156Z,6.84
2019-05-05T22:34:14.889Z,6.82
2019-05-05T22:36:44.844Z,6.81
2019-05-05T22:39:16.527Z,6.77
2019-05-05T22:41:44.692Z,6.74
2019-05-05T22:44:14.026Z,6.70
2019-05-05T22:46:42.947Z,6.67
2019-05-05T22:49:11.684Z,6.71
2019-05-05T22:51:57.203Z,6.72
2019-05-05T22:54:25.868Z,6.74
2019-05-05T22:56:54.602Z,6.76
2019-05-05T22:59:25.988Z,6.79
2019-05-05T23:01:54.196Z,6.89
2019-05-05T23:04:24.727Z,6.94
2019-05-05T23:06:58.036Z,6.96
2019-05-05T23:09:26.742Z,6.97
2019-05-05T23:11:55.407Z,7.02
2019-05-05T23:14:30.545Z,7.02
2019-05-05T23:17:20.926Z,7.00
2019-05-05T23:19:54.018Z,6.98
2019-05-05T23:22:24.328Z,6.95
2019-05-05T23:27:48.636Z,6.87
2019-05-05T23:30:20.197Z,6.84
2019-05-05T23:32:48.964Z,6.79
2019-05-05T23:35:18.486Z,6.76
2019-05-05T23:37:47.264Z,6.70
2019-05-05T23:40:21.630Z,6.67
2019-05-05T23:42:50.434Z,6.63
2019-05-05T23:45:19.386Z,6.62
2019-05-05T23:47:48.059Z,6.58
2019-05-05T23:50:17.072Z,6.45
2019-05-05T23:52:45.732Z,6.44
2019-05-05T23:55:14.640Z,6.43
2019-05-05T23:57:43.794Z,6.43
